首页
METAR-TAF:

METAR-TAF

机场 :

Anoka County-Blaine Airport (Janes Field)

明尼阿波利斯 / Blaine, 明尼蘇達州, 美国

纬度: 45-09N, 经度: 093-13W, 海拔: 278米

当前天气观测

该预报发布于17分钟前的02:45 UTC
风速10节,风向南转南东,有时为15节阵风
温度 4°C
湿度 81%
气压 1016 hPa
能見度: 16.1公里
散云层高于12000英尺
多云层高于20000英尺

METAR: KANE 170245Z 15010G15KT 10SM SCT120 BKN200 04/01 A2999

时间: 21:02 (03:02 UTC)


TAF: 丢失

超过4000个机场的气象观测和天气预报(METAR&TAF报告)。

可查询的气象台以黄色和红色小点在地图上表示。

将鼠标移到小点上方,可查看气象台名称。

然后点击查看天气观测和预报。

如需切换地图:点击带黑十字的绿色按钮放大地图;点击带横线的绿色按钮缩小地图;或者点击绿色箭头查看邻近地区的地图。


METAR-TAF: